Time;durP1;ratioP1;P1;durP2;ratioP2;P2;SDS_P1;SDS_P2;PMS_P1;PMS_P2;Temp;Humidity;BMP_temperature;BMP_pressure;BME280_temperature;BME280_humidity;BME280_pressure;Samples;Min_cycle;Max_cycle;Signal;HPM_P1;HPM_P2
2021/03/21 14:05:18;;;;;;;8.10;7.17;;;;;;;16.43;22.20;101279.41;1770284;81;20962;-80
2021/03/21 14:07:48;;;;;;;10.20;7.50;;;;;;;15.70;22.58;101289.12;1761032;80;21650;-84
2021/03/21 14:10:20;;;;;;;7.92;7.08;;;;;;;14.99;23.39;101284.13;1759036;80;21034;-77
2021/03/21 14:12:48;;;;;;;9.43;6.72;;;;;;;14.43;24.71;101280.89;1765353;80;21010;-77
2021/03/21 14:15:20;;;;;;;9.10;7.75;;;;;;;14.06;24.46;101279.59;1758138;80;21277;-77
2021/03/21 14:17:48;;;;;;;9.03;8.10;;;;;;;13.57;24.92;101281.31;1755731;80;21505;-78
2021/03/21 14:20:22;;;;;;;10.28;8.60;;;;;;;12.90;25.80;101278.00;1759564;80;20983;-77
2021/03/21 14:22:50;;;;;;;11.12;8.93;;;;;;;12.31;26.50;101275.37;1750152;81;21634;-79
2021/03/21 14:25:19;;;;;;;11.68;9.58;;;;;;;11.91;27.78;101278.31;1758817;81;21165;-83
2021/03/21 14:27:48;;;;;;;12.28;10.75;;;;;;;11.84;28.91;101277.01;1715218;80;21362;-84
2021/03/21 14:30:17;;;;;;;12.68;10.55;;;;;;;11.81;29.20;101272.00;1754286;80;21117;-85
2021/03/21 14:32:46;;;;;;;13.75;10.75;;;;;;;11.71;30.11;101266.17;1759546;80;21177;-82
2021/03/21 14:35:18;;;;;;;14.20;10.53;;;;;;;11.63;30.67;101269.20;1747767;81;21209;-84
2021/03/21 14:37:49;;;;;;;15.43;11.53;;;;;;;11.65;31.48;101262.97;1750582;81;21588;-77
2021/03/21 14:40:17;;;;;;;15.35;10.70;;;;;;;12.05;30.77;101252.29;1759256;81;21368;-79
2021/03/21 14:42:45;;;;;;;12.80;9.60;;;;;;;12.37;30.39;101250.25;1759704;80;21189;-78
2021/03/21 14:45:15;;;;;;;12.33;9.45;;;;;;;12.55;30.32;101245.15;1760667;81;21113;-79
2021/03/21 14:47:45;;;;;;;11.28;9.85;;;;;;;12.89;30.06;101234.64;1753771;81;21033;-87
2021/03/21 14:50:15;;;;;;;10.88;9.28;;;;;;;12.73;30.20;101238.73;1760084;81;21212;-84
2021/03/21 14:52:48;;;;;;;14.18;9.43;;;;;;;12.24;30.48;101242.85;1747405;81;21207;-86
2021/03/21 14:55:33;;;;;;;10.32;8.70;;;;;;;11.43;31.46;101230.11;1968530;72;22180;-80
2021/03/21 14:58:01;;;;;;;10.43;8.60;;;;;;;11.03;32.65;101234.72;1856247;77;21506;-86
2021/03/21 15:00:34;;;;;;;10.88;8.63;;;;;;;10.82;32.27;101231.59;1857285;77;21550;-80
2021/03/21 15:03:03;;;;;;;;;;;;;;;10.68;32.87;101227.68;1858084;77;20982;-78
2021/03/21 15:05:32;;;;;;;11.93;8.68;;;;;;;10.80;32.94;101225.67;1855567;77;20195;-84
2021/03/21 15:08:00;;;;;;;9.68;7.80;;;;;;;10.75;32.41;101222.52;1853751;77;21138;-82
2021/03/21 15:10:30;;;;;;;10.40;8.28;;;;;;;10.41;32.83;101216.26;1855502;77;20977;-85
2021/03/21 15:12:59;;;;;;;9.53;8.03;;;;;;;10.20;33.08;101219.61;1853934;77;21185;-82
2021/03/21 15:15:41;;;;;;;12.35;8.70;;;;;;;9.88;33.08;101220.05;1855765;77;21562;-83
2021/03/21 15:18:10;;;;;;;11.88;7.70;;;;;;;9.62;33.26;101222.34;1854680;77;20993;-80
2021/03/21 15:20:47;;;;;;;11.00;9.05;;;;;;;9.32;33.87;101219.59;1855468;77;21602;-79
2021/03/21 15:23:18;;;;;;;11.60;7.70;;;;;;;9.21;34.53;101220.17;1857136;77;21054;-79
2021/03/21 15:25:50;;;;;;;11.10;8.05;;;;;;;9.13;35.12;101214.53;1855196;77;21585;-79
2021/03/21 15:28:21;;;;;;;12.33;9.23;;;;;;;9.09;35.83;101207.86;1857141;77;21096;-79
2021/03/21 15:30:49;;;;;;;12.60;9.20;;;;;;;9.04;36.25;101203.36;1855281;77;21017;-78
2021/03/21 15:33:18;;;;;;;10.95;8.78;;;;;;;8.98;36.77;101200.63;1853637;77;21578;-78
2021/03/21 15:35:47;;;;;;;11.25;9.35;;;;;;;8.92;36.43;101193.18;1855935;77;21017;-89
2021/03/21 15:38:16;;;;;;;12.07;9.43;;;;;;;8.90;36.35;101193.70;1853624;77;21194;-83
2021/03/21 15:40:44;;;;;;;13.70;10.25;;;;;;;8.81;36.66;101191.58;1855551;77;20933;-82
2021/03/21 15:43:12;;;;;;;14.13;10.05;;;;;;;8.74;37.33;101191.50;1857038;77;20910;-82
2021/03/21 15:45:41;;;;;;;12.93;10.63;;;;;;;8.72;37.84;101190.75;1855411;77;20983;-79
2021/03/21 15:48:09;;;;;;;14.90;10.23;;;;;;;8.63;37.77;101187.33;1857625;77;20974;-83
2021/03/21 15:50:40;;;;;;;12.80;9.80;;;;;;;8.53;38.74;101191.73;1856440;77;21140;-84
2021/03/21 15:53:09;;;;;;;9.95;8.63;;;;;;;8.38;38.96;101194.61;1857063;77;20994;-80
2021/03/21 15:55:42;;;;;;;13.58;9.43;;;;;;;8.15;39.50;101192.25;1855410;77;20981;-86
2021/03/21 15:58:09;;;;;;;12.37;8.93;;;;;;;7.97;39.92;101194.81;1853390;77;21128;-83
2021/03/21 16:00:42;;;;;;;12.90;9.93;;;;;;;7.80;40.10;101204.23;1855964;77;21005;-84
2021/03/21 16:03:11;;;;;;;14.95;10.05;;;;;;;7.61;40.33;101191.77;1857317;77;21878;-80
2021/03/21 16:05:40;;;;;;;13.20;9.58;;;;;;;7.44;41.06;101194.66;1826776;77;20999;-80
2021/03/21 16:08:09;;;;;;;14.70;10.35;;;;;;;7.34;41.71;101193.39;1856381;77;20982;-78
2021/03/21 16:10:37;;;;;;;13.40;10.03;;;;;;;7.27;42.35;101189.87;1854624;77;21568;-81
2021/03/21 16:13:09;;;;;;;13.13;9.93;;;;;;;7.20;42.38;101182.00;1856603;77;21614;-80
2021/03/21 16:15:39;;;;;;;13.50;10.05;;;;;;;7.10;42.52;101193.63;1854622;77;21173;-81
2021/03/21 16:18:10;;;;;;;14.23;9.88;;;;;;;7.01;42.94;101188.86;1852931;77;21010;-82
2021/03/21 16:20:39;;;;;;;12.00;9.50;;;;;;;6.89;42.86;101187.17;1854766;77;21562;-78
2021/03/21 16:23:08;;;;;;;12.65;9.45;;;;;;;6.78;43.16;101182.94;1856426;77;21095;-78
2021/03/21 16:25:37;;;;;;;14.65;10.23;;;;;;;6.68;43.31;101177.77;1854785;77;21032;-80
2021/03/21 16:28:07;;;;;;;14.47;9.80;;;;;;;6.57;43.42;101176.11;1852784;77;21423;-81
2021/03/21 16:30:37;;;;;;;15.53;10.03;;;;;;;6.46;43.97;101173.56;1854617;77;21096;-85
2021/03/21 16:33:10;;;;;;;13.00;9.70;;;;;;;6.37;44.30;101175.63;1856649;77;21070;-83
2021/03/21 16:35:41;;;;;;;15.55;9.48;;;;;;;6.29;44.60;101175.52;1854538;77;21001;-80
2021/03/21 16:38:13;;;;;;;17.15;10.85;;;;;;;6.17;45.26;101178.59;1856415;77;21523;-81
2021/03/21 16:40:45;;;;;;;15.78;10.93;;;;;;;6.09;45.98;101176.34;1852395;77;22359;-84
2021/03/21 16:43:17;;;;;;;14.77;10.43;;;;;;;6.01;46.12;101168.50;1856553;77;21472;-79
2021/03/21 16:45:49;;;;;;;16.00;10.18;;;;;;;5.92;46.76;101165.84;1854492;77;20927;-82
2021/03/21 16:48:18;;;;;;;14.65;10.55;;;;;;;5.84;47.44;101162.23;1856775;77;20990;-82
2021/03/21 16:50:48;;;;;;;16.23;10.63;;;;;;;5.76;47.68;101170.71;1854701;77;21006;-79
2021/03/21 16:53:16;;;;;;;15.40;9.58;;;;;;;5.66;48.21;101176.26;1856577;77;21335;-77
2021/03/21 16:55:44;;;;;;;14.28;10.43;;;;;;;5.57;48.79;101178.73;1854479;77;21059;-83
2021/03/21 16:58:12;;;;;;;15.88;9.43;;;;;;;5.51;49.21;101184.55;1853093;77;20925;-76
2021/03/21 17:00:42;;;;;;;17.55;10.63;;;;;;;5.46;49.42;101187.28;1854582;77;20977;-77
2021/03/21 17:03:10;;;;;;;14.25;10.18;;;;;;;5.38;50.26;101189.76;1856410;77;21104;-81
2021/03/21 17:05:39;;;;;;;15.55;10.72;;;;;;;5.29;50.76;101196.93;1854666;77;21184;-85
2021/03/21 17:08:08;;;;;;;15.83;10.55;;;;;;;5.24;51.89;101195.39;1856289;77;20981;-83
2021/03/21 17:10:39;;;;;;;15.28;10.98;;;;;;;5.17;52.47;101190.91;1854982;77;21079;-84
2021/03/21 17:13:10;;;;;;;15.93;11.83;;;;;;;5.10;53.42;101186.05;1857076;77;20969;-82
2021/03/21 17:15:41;;;;;;;16.75;10.93;;;;;;;5.03;54.38;101184.14;1854640;77;21018;-76
2021/03/21 17:18:10;;;;;;;17.15;11.78;;;;;;;4.96;54.80;101182.66;1856333;77;21185;-77
2021/03/21 17:20:40;;;;;;;15.15;11.55;;;;;;;4.92;55.39;101191.37;1854558;77;20994;-79
2021/03/21 17:23:08;;;;;;;16.48;12.50;;;;;;;4.88;56.02;101185.11;1857192;77;20958;-84
2021/03/21 17:25:39;;;;;;;20.90;12.45;;;;;;;4.83;56.40;101185.26;1854717;77;21710;-80
2021/03/21 17:28:07;;;;;;;17.02;11.83;;;;;;;4.77;56.92;101193.18;1856384;77;21561;-82
2021/03/21 17:30:40;;;;;;;16.77;12.78;;;;;;;4.70;57.37;101188.69;1854786;77;22131;-85
2021/03/21 17:33:08;;;;;;;19.60;13.22;;;;;;;4.65;57.97;101189.30;1856708;77;21108;-80
2021/03/21 17:35:37;;;;;;;16.02;12.03;;;;;;;4.60;58.40;101200.16;1854567;77;21098;-79
2021/03/21 17:38:05;;;;;;;16.00;11.83;;;;;;;4.56;58.73;101207.57;1856622;77;21491;-82
2021/03/21 17:40:35;;;;;;;19.50;12.05;;;;;;;4.52;59.27;101211.59;1854589;77;20900;-78
2021/03/21 17:43:05;;;;;;;15.80;11.57;;;;;;;4.47;59.57;101209.16;1856467;77;21151;-78
2021/03/21 17:45:41;;;;;;;18.50;13.28;;;;;;;4.45;60.47;101212.23;1854582;77;20943;-80
2021/03/21 17:48:09;;;;;;;17.35;12.53;;;;;;;4.42;60.71;101206.34;1856540;77;20993;-83
2021/03/21 17:50:40;;;;;;;18.27;12.43;;;;;;;4.35;61.58;101212.13;1854652;77;21023;-85
2021/03/21 17:53:09;;;;;;;18.45;12.37;;;;;;;4.28;61.72;101213.20;1856509;77;20973;-78
2021/03/21 17:55:37;;;;;;;18.92;12.90;;;;;;;4.24;62.18;101214.20;1855089;77;22158;-81
2021/03/21 17:58:06;;;;;;;18.62;12.82;;;;;;;4.19;63.24;101207.07;1865669;77;21040;-82
2021/03/21 18:00:34;;;;;;;17.62;12.13;;;;;;;4.16;63.54;101205.88;1855066;77;20935;-81
2021/03/21 18:03:02;;;;;;;19.73;13.32;;;;;;;4.10;63.84;101207.36;1866023;77;20916;-80
2021/03/21 18:05:32;;;;;;;16.90;12.65;;;;;;;4.05;64.30;101202.81;1855009;77;20924;-82
2021/03/21 18:08:01;;;;;;;20.70;14.07;;;;;;;4.01;64.63;101202.50;1865807;77;21575;-86
2021/03/21 18:10:31;;;;;;;18.20;12.82;;;;;;;3.97;64.92;101206.05;1851334;77;21501;-82
2021/03/21 18:13:01;;;;;;;17.57;12.88;;;;;;;3.94;65.19;101206.98;1865811;77;21641;-83
2021/03/21 18:15:30;;;;;;;19.30;12.78;;;;;;;3.89;65.40;101202.45;1854939;77;20981;-78
2021/03/21 18:18:00;;;;;;;18.92;13.00;;;;;;;3.87;65.62;101206.77;1865665;77;21004;-85
2021/03/21 18:20:29;;;;;;;18.37;12.88;;;;;;;3.85;65.91;101210.27;1855137;77;21186;-86
2021/03/21 18:22:57;;;;;;;17.17;11.88;;;;;;;3.84;66.70;101209.86;1865871;77;20985;-82
2021/03/21 18:25:27;;;;;;;17.87;12.90;;;;;;;3.81;66.57;101200.53;1855868;77;21496;-83
2021/03/21 18:27:56;;;;;;;16.67;12.75;;;;;;;3.80;67.04;101196.74;1865696;77;20955;-86
2021/03/21 18:30:29;;;;;;;21.52;13.15;;;;;;;3.78;67.04;101198.05;1854973;77;21015;-83
2021/03/21 18:32:58;;;;;;;17.80;13.40;;;;;;;3.74;67.35;101198.59;1865573;77;21139;-80
2021/03/21 18:35:26;;;;;;;22.58;13.38;;;;;;;3.73;67.50;101194.33;1854792;77;21616;-80
2021/03/21 18:37:55;;;;;;;19.75;12.82;;;;;;;3.73;67.67;101201.22;1865794;77;20922;-81
2021/03/21 18:40:27;;;;;;;18.67;11.53;;;;;;;3.70;67.92;101193.60;1855009;77;21485;-79
2021/03/21 18:42:57;;;;;;;18.40;12.65;;;;;;;3.69;67.98;101194.05;1865843;77;21033;-79
2021/03/21 18:45:28;;;;;;;16.73;12.30;;;;;;;3.69;68.28;101191.91;1854906;77;21201;-77
2021/03/21 18:47:58;;;;;;;17.75;12.53;;;;;;;3.67;68.37;101191.94;1865558;77;20949;-80
2021/03/21 18:50:29;;;;;;;21.68;13.83;;;;;;;3.69;68.49;101189.34;1854978;77;21556;-78
2021/03/21 18:52:58;;;;;;;19.42;13.60;;;;;;;3.70;68.55;101186.72;1865725;77;21021;-78
2021/03/21 18:55:28;;;;;;;18.32;13.65;;;;;;;3.71;68.50;101185.00;1842025;77;21572;-77
2021/03/21 18:57:57;;;;;;;19.77;13.48;;;;;;;3.69;68.57;101182.49;1804424;79;21196;-79
2021/03/21 19:00:37;;;;;;;21.07;13.95;;;;;;;3.68;68.55;101182.09;1825036;78;21040;-84
2021/03/21 19:03:06;;;;;;;20.65;13.68;;;;;;;3.67;68.54;101180.83;1822569;78;20933;-82
2021/03/21 19:05:34;;;;;;;23.10;14.50;;;;;;;3.64;68.49;101174.07;1837709;78;20902;-81
2021/03/21 19:08:03;;;;;;;19.65;14.40;;;;;;;3.62;68.49;101173.28;1806490;78;21036;-79
2021/03/21 19:10:39;;;;;;;21.55;13.88;;;;;;;3.60;68.38;101173.78;1831787;78;22252;-79
2021/03/21 19:13:09;;;;;;;19.90;14.07;;;;;;;3.58;68.46;101175.53;1831388;78;21138;-82
2021/03/21 19:15:37;;;;;;;21.90;14.78;;;;;;;3.57;68.51;101170.00;1831624;78;21139;-81
2021/03/21 19:18:05;;;;;;;21.17;14.75;;;;;;;3.56;68.64;101162.36;1831714;78;21044;-78
2021/03/21 19:20:37;;;;;;;19.95;14.00;;;;;;;3.55;68.69;101165.36;1831795;78;21032;-80
2021/03/21 19:23:08;;;;;;;21.75;14.65;;;;;;;3.55;68.73;101163.23;1822455;78;22122;-85
2021/03/21 19:25:38;;;;;;;19.70;14.57;;;;;;;3.54;68.76;101161.58;1837807;78;21139;-83
2021/03/21 19:28:07;;;;;;;20.77;14.87;;;;;;;3.55;68.72;101151.69;1831954;78;21193;-79
2021/03/21 19:30:39;;;;;;;23.05;15.48;;;;;;;3.52;68.72;101156.47;1831882;78;21597;-81
2021/03/21 19:33:07;;;;;;;24.43;15.32;;;;;;;3.51;68.82;101157.34;1831815;78;21126;-79
2021/03/21 19:35:41;;;;;;;20.80;13.95;;;;;;;3.51;68.87;101153.97;1822421;78;21157;-78
2021/03/21 19:38:09;;;;;;;23.87;14.75;;;;;;;3.48;68.91;101143.77;1804093;79;21162;-80
2021/03/21 19:40:38;;;;;;;20.45;13.98;;;;;;;3.43;68.93;101140.07;1804905;79;21115;-82
2021/03/21 19:43:07;;;;;;;21.85;14.58;;;;;;;3.41;68.99;101140.56;1832011;78;21016;-83
2021/03/21 19:45:39;;;;;;;20.10;13.62;;;;;;;3.41;68.97;101143.13;1831997;78;21000;-79
2021/03/21 19:48:10;;;;;;;22.85;13.53;;;;;;;3.40;68.92;101140.59;1831918;78;21303;-80
2021/03/21 19:50:42;;;;;;;19.12;12.15;;;;;;;3.40;68.82;101141.44;1832103;78;20961;-81
2021/03/21 19:53:14;;;;;;;18.90;12.88;;;;;;;3.39;68.85;101139.75;1822610;78;20990;-80
2021/03/21 19:55:43;;;;;;;20.90;12.18;;;;;;;3.40;68.72;101145.73;1836157;77;21044;-80
2021/03/21 19:58:12;;;;;;;18.55;13.05;;;;;;;3.40;68.57;101147.01;1852342;77;21625;-80
2021/03/21 20:00:41;;;;;;;18.67;12.53;;;;;;;3.41;68.58;101146.98;1887163;76;22090;-84
2021/03/21 20:03:09;;;;;;;21.82;14.03;;;;;;;3.41;68.36;101139.28;1852290;77;20970;-84
2021/03/21 20:05:37;;;;;;;21.30;12.58;;;;;;;3.41;68.30;101138.00;1887057;76;21618;-82
2021/03/21 20:08:06;;;;;;;17.77;12.33;;;;;;;3.41;68.21;101138.00;1852377;77;21479;-83
2021/03/21 20:10:35;;;;;;;21.20;13.60;;;;;;;3.40;68.27;101137.59;1887059;76;21060;-80
2021/03/21 20:13:05;;;;;;;19.05;13.43;;;;;;;3.40;68.16;101129.05;1852238;77;21288;-84
2021/03/21 20:15:37;;;;;;;21.07;13.15;;;;;;;3.41;68.09;101124.33;1886903;76;21507;-79
2021/03/21 20:18:07;;;;;;;18.37;12.55;;;;;;;3.38;68.02;101123.98;1852357;77;20878;-81
2021/03/21 20:20:38;;;;;;;17.17;12.20;;;;;;;3.39;68.14;101122.23;1886730;76;21017;-80
2021/03/21 20:23:09;;;;;;;16.67;11.97;;;;;;;3.38;67.97;101123.98;1852232;77;21358;-80
2021/03/21 20:25:43;;;;;;;19.52;12.55;;;;;;;3.37;67.87;101124.86;1887076;76;20982;-80
2021/03/21 20:28:15;;;;;;;20.02;12.58;;;;;;;3.37;67.83;101124.02;1852063;77;21066;-81
2021/03/21 20:30:44;;;;;;;18.02;12.33;;;;;;;3.38;67.79;101125.70;1887193;76;20875;-81
2021/03/21 20:33:16;;;;;;;17.67;11.80;;;;;;;3.38;67.69;101130.83;1852405;77;20918;-85
2021/03/21 20:35:44;;;;;;;20.77;12.85;;;;;;;3.37;67.58;101122.73;1886958;76;20981;-81
2021/03/21 20:38:12;;;;;;;18.60;11.60;;;;;;;3.37;67.66;101115.03;1852462;77;21190;-86
2021/03/21 20:40:42;;;;;;;17.85;12.00;;;;;;;3.35;67.65;101109.94;1886945;76;20966;-77
2021/03/21 20:43:13;;;;;;;19.25;13.15;;;;;;;3.36;67.62;101103.08;1852336;77;20985;-78
2021/03/21 20:45:44;;;;;;;19.20;13.15;;;;;;;3.35;67.71;101106.08;1886943;76;20910;-78
2021/03/21 20:48:12;;;;;;;18.82;12.50;;;;;;;3.36;67.74;101109.06;1852133;77;20966;-78
2021/03/21 20:50:40;;;;;;;19.60;13.13;;;;;;;3.36;67.81;101106.49;1886891;76;22096;-80
2021/03/21 20:53:12;;;;;;;18.10;11.90;;;;;;;3.38;67.78;101107.31;1852126;77;20954;-79
2021/03/21 20:55:42;;;;;;;16.20;11.85;;;;;;;3.39;67.94;101098.70;1887468;76;20914;-80
2021/03/21 20:58:10;;;;;;;19.07;11.00;;;;;;;3.40;67.86;101094.42;1854738;77;21543;-79
2021/03/21 21:00:42;;;;;;;19.00;11.97;;;;;;;3.42;67.80;101096.48;1856308;77;21021;-79
2021/03/21 21:03:10;;;;;;;15.15;11.57;;;;;;;3.40;67.72;101083.72;1854902;77;21193;-78
2021/03/21 21:05:39;;;;;;;21.55;12.60;;;;;;;3.41;67.69;101083.28;1856326;77;20970;-79
2021/03/21 21:08:10;;;;;;;17.92;12.18;;;;;;;3.41;67.72;101079.00;1854728;77;21647;-79
2021/03/21 21:10:38;;;;;;;17.27;12.07;;;;;;;3.40;67.74;101072.18;1856429;77;21577;-78
2021/03/21 21:13:09;;;;;;;16.70;11.45;;;;;;;3.41;67.80;101076.88;1854551;77;21035;-78
2021/03/21 21:15:37;;;;;;;18.75;12.90;;;;;;;3.41;67.71;101073.02;1856147;77;21188;-77
2021/03/21 21:18:06;;;;;;;17.07;11.90;;;;;;;3.39;67.71;101070.92;1854660;77;20943;-80
2021/03/21 21:20:38;;;;;;;17.23;12.15;;;;;;;3.38;67.83;101062.86;1856445;77;20910;-80
2021/03/21 21:23:08;;;;;;;14.30;11.05;;;;;;;3.38;67.78;101067.55;1855015;77;21129;-78
2021/03/21 21:25:36;;;;;;;16.52;11.38;;;;;;;3.37;67.78;101064.58;1856524;77;21033;-79
2021/03/21 21:28:05;;;;;;;17.85;11.78;;;;;;;3.38;67.63;101059.01;1854576;77;21189;-81
2021/03/21 21:30:33;;;;;;;16.82;11.85;;;;;;;3.35;67.60;101053.97;1856413;77;20914;-82
2021/03/21 21:33:01;;;;;;;16.75;12.33;;;;;;;3.33;67.49;101054.44;1854918;77;21571;-79
2021/03/21 21:35:38;;;;;;;16.73;11.90;;;;;;;3.31;67.47;101055.78;1856401;77;21630;-79
2021/03/21 21:38:06;;;;;;;15.55;10.53;;;;;;;3.29;67.62;101052.41;1854492;77;21445;-79
2021/03/21 21:40:36;;;;;;;17.98;12.35;;;;;;;3.29;67.76;101050.31;1856411;77;21199;-76
2021/03/21 21:43:08;;;;;;;16.62;10.98;;;;;;;3.28;67.80;101052.47;1854522;77;21078;-79
2021/03/21 21:45:36;;;;;;;18.32;11.55;;;;;;;3.25;67.79;101037.17;1856265;77;21187;-78
2021/03/21 21:48:05;;;;;;;16.23;11.40;;;;;;;3.24;67.76;101035.48;1854556;77;21458;-78
2021/03/21 21:50:33;;;;;;;21.25;11.40;;;;;;;3.21;67.84;101035.14;1856451;77;21053;-78
2021/03/21 21:53:02;;;;;;;18.15;10.95;;;;;;;3.18;67.91;101038.64;1854474;77;22308;-79
2021/03/21 21:55:34;;;;;;;18.80;12.00;;;;;;;3.16;68.03;101037.83;1856155;77;21013;-77
2021/03/21 21:58:04;;;;;;;17.42;11.70;;;;;;;3.16;68.12;101036.98;1854513;77;21074;-77
2021/03/21 22:00:32;;;;;;;17.52;11.48;;;;;;;3.16;68.17;101028.01;1856378;77;21052;-78
2021/03/21 22:03:00;;;;;;;16.87;11.35;;;;;;;3.16;68.33;101025.44;1854576;77;21114;-78
2021/03/21 22:05:29;;;;;;;15.53;10.90;;;;;;;3.16;68.44;101021.16;1856326;77;22132;-78
2021/03/21 22:07:59;;;;;;;18.10;11.25;;;;;;;3.17;68.44;101018.16;1854523;77;20998;-80
2021/03/21 22:10:34;;;;;;;18.25;11.22;;;;;;;3.18;68.58;101014.72;1856186;77;21045;-78
2021/03/21 22:13:02;;;;;;;16.48;11.22;;;;;;;3.17;68.75;101004.90;1854530;77;20904;-78
2021/03/21 22:15:33;;;;;;;17.25;12.07;;;;;;;3.19;69.03;100998.45;1856164;77;21124;-78
2021/03/21 22:18:01;;;;;;;18.98;12.07;;;;;;;3.22;69.18;100992.39;1854352;77;21246;-78
2021/03/21 22:20:32;;;;;;;16.32;11.80;;;;;;;3.25;69.64;100989.73;1856196;77;21574;-78
2021/03/21 22:23:00;;;;;;;17.90;12.65;;;;;;;3.27;69.87;100986.22;1854456;77;21058;-78
2021/03/21 22:25:29;;;;;;;20.65;13.40;;;;;;;3.32;70.14;100988.66;1856185;77;21115;-79
2021/03/21 22:27:58;;;;;;;17.80;12.45;;;;;;;3.33;70.35;100990.31;1854383;77;21126;-79
2021/03/21 22:30:27;;;;;;;21.82;12.55;;;;;;;3.34;70.51;100987.72;1856195;77;21124;-78
2021/03/21 22:33:05;;;;;;;20.77;13.53;;;;;;;3.35;70.80;100983.44;1854441;77;21054;-76
2021/03/21 22:35:34;;;;;;;20.48;12.68;;;;;;;3.36;71.02;100983.37;1856319;77;21061;-76
2021/03/21 22:38:04;;;;;;;16.40;12.40;;;;;;;3.37;71.28;100982.93;1854673;77;20896;-78
2021/03/21 22:40:33;;;;;;;18.07;12.78;;;;;;;3.37;71.41;100967.54;1856353;77;20926;-77
2021/03/21 22:43:02;;;;;;;18.48;12.98;;;;;;;3.40;71.75;100954.17;1854445;77;21509;-77
2021/03/21 22:45:33;;;;;;;19.55;12.85;;;;;;;3.42;71.81;100954.11;1856216;77;21080;-78
2021/03/21 22:48:01;;;;;;;19.17;14.05;;;;;;;3.45;71.89;100959.14;1854466;77;20975;-79
2021/03/21 22:50:32;;;;;;;17.42;12.35;;;;;;;3.48;71.86;100964.17;1856235;77;20934;-78
2021/03/21 22:53:01;;;;;;;18.27;12.65;;;;;;;3.50;71.76;100960.70;1856197;76;21112;-80
2021/03/21 22:55:30;;;;;;;19.35;12.60;;;;;;;3.53;71.53;100958.47;1854448;77;21254;-78
2021/03/21 22:57:59;;;;;;;20.00;13.28;;;;;;;3.58;71.80;100965.13;1856224;77;20981;-77
2021/03/21 23:00:32;;;;;;;17.87;11.95;;;;;;;3.62;71.67;100949.19;1854480;77;21010;-77
2021/03/21 23:03:00;;;;;;;21.40;12.43;;;;;;;3.65;71.44;100951.20;1856424;77;21124;-77
2021/03/21 23:05:31;;;;;;;18.67;12.40;;;;;;;3.66;71.40;100951.61;1854395;77;21587;-77
2021/03/21 23:07:59;;;;;;;19.98;12.65;;;;;;;3.69;71.25;100944.25;1856103;77;21195;-78
2021/03/21 23:10:35;;;;;;;17.17;13.10;;;;;;;3.70;71.18;100940.80;1854377;77;21038;-78
2021/03/21 23:13:03;;;;;;;17.98;12.75;;;;;;;3.75;71.55;100947.89;1855520;77;21065;-78
2021/03/21 23:15:31;;;;;;;16.37;12.23;;;;;;;3.79;71.49;100952.05;1854608;77;21102;-78
2021/03/21 23:18:00;;;;;;;17.42;12.78;;;;;;;3.83;71.48;100950.21;1856521;77;21128;-78
2021/03/21 23:20:31;;;;;;;18.52;12.23;;;;;;;3.86;71.48;100943.69;1854689;77;21206;-79
2021/03/21 23:22:59;;;;;;;20.32;13.35;;;;;;;3.89;71.40;100946.16;1856494;77;21203;-78
2021/03/21 23:25:29;;;;;;;19.48;13.13;;;;;;;3.92;71.56;100949.45;1854785;77;21026;-82
2021/03/21 23:27:58;;;;;;;23.67;14.73;;;;;;;3.95;71.51;100940.36;1856451;77;21147;-79
2021/03/21 23:30:30;;;;;;;23.90;15.18;;;;;;;3.95;71.43;100935.67;1854819;77;21062;-79
2021/03/21 23:33:00;;;;;;;23.10;15.40;;;;;;;3.95;71.53;100926.24;1856410;77;21708;-76
2021/03/21 23:35:29;;;;;;;22.45;14.63;;;;;;;3.95;71.88;100927.97;1854452;77;21643;-77
2021/03/21 23:37:57;;;;;;;23.95;15.03;;;;;;;3.95;72.22;100918.54;1856443;77;21558;-78
2021/03/21 23:40:29;;;;;;;27.45;16.75;;;;;;;3.98;72.38;100914.58;1854550;77;21047;-78
2021/03/21 23:42:58;;;;;;;26.25;16.73;;;;;;;4.01;72.26;100914.47;1856415;77;21202;-77
2021/03/21 23:45:27;;;;;;;23.57;15.50;;;;;;;4.04;72.10;100921.22;1854730;77;21481;-79
2021/03/21 23:47:56;;;;;;;26.37;17.07;;;;;;;4.04;72.24;100916.09;1856501;77;20934;-80
2021/03/21 23:50:32;;;;;;;27.95;16.90;;;;;;;4.03;72.22;100914.41;1854686;77;21082;-78
2021/03/21 23:53:01;;;;;;;26.65;17.30;;;;;;;4.03;72.52;100904.13;1856436;77;21539;-78
2021/03/21 23:55:30;;;;;;;25.02;16.07;;;;;;;4.01;72.50;100902.92;1854701;77;21556;-79
2021/03/21 23:57:58;;;;;;;29.27;16.82;;;;;;;4.00;72.59;100899.95;1856344;77;21193;-78
